Time;durP1;ratioP1;P1;durP2;ratioP2;P2;SDS_P1;SDS_P2;PMS_P1;PMS_P2;Temp;Humidity;BMP_temperature;BMP_pressure;BME280_temperature;BME280_humidity;BME280_pressure;Samples;Min_cycle;Max_cycle;Signal;HPM_P1;HPM_P2
2023/03/16 00:01:07;;;;;;;4.77;2.77;;;;;;;;;;5072966;28;20438;-55
2023/03/16 00:03:33;;;;;;;4.53;2.50;;;;;;;;;;5072780;28;20441;-55
2023/03/16 00:05:59;;;;;;;2.80;2.20;;;;;;;;;;5072584;28;20447;-55
2023/03/16 00:08:25;;;;;;;3.77;2.33;;;;;;;;;;5072868;28;20429;-55
2023/03/16 00:10:52;;;;;;;4.63;2.50;;;;;;;;;;5072684;28;20482;-55
2023/03/16 00:13:22;;;;;;;6.23;2.83;;;;;;;;;;5072498;28;20688;-55
2023/03/16 00:15:53;;;;;;;3.83;2.50;;;;;;;;;;5072383;28;20457;-55
2023/03/16 00:18:19;;;;;;;4.33;2.40;;;;;;;;;;5072460;28;20986;-55
2023/03/16 00:20:49;;;;;;;4.93;2.17;;;;;;;;;;5072325;28;20787;-55
2023/03/16 00:23:15;;;;;;;6.87;2.80;;;;;;;;;;5072424;28;20453;-55
2023/03/16 00:25:41;;;;;;;3.93;2.20;;;;;;;;;;5072397;28;20434;-55
2023/03/16 00:28:07;;;;;;;4.93;3.10;;;;;;;;;;5072485;28;20731;-55
2023/03/16 00:30:33;;;;;;;4.83;2.90;;;;;;;;;;5072174;28;20238;-55
2023/03/16 00:33:00;;;;;;;6.80;3.70;;;;;;;;;;5072096;28;20200;-55
2023/03/16 00:35:26;;;;;;;5.10;2.63;;;;;;;;;;5072254;28;20438;-55
2023/03/16 00:37:56;;;;;;;5.57;2.47;;;;;;;;;;5072330;28;20798;-55
2023/03/16 00:40:22;;;;;;;2.40;2.20;;;;;;;;;;5072283;28;20472;-55
2023/03/16 00:42:48;;;;;;;6.97;2.20;;;;;;;;;;5071852;28;20461;-55
2023/03/16 00:45:14;;;;;;;5.30;2.30;;;;;;;;;;5071788;28;20274;-55
2023/03/16 00:47:41;;;;;;;4.00;2.43;;;;;;;;;;5072052;28;20200;-55
2023/03/16 00:50:08;;;;;;;4.37;2.60;;;;;;;;;;5072037;28;20474;-55
2023/03/16 00:52:34;;;;;;;2.77;2.20;;;;;;;;;;5071737;28;20450;-55
2023/03/16 00:55:03;;;;;;;4.50;2.43;;;;;;;;;;5071987;28;20437;-55
2023/03/16 00:57:30;;;;;;;4.30;2.40;;;;;;;;;;5071711;28;20249;-55
2023/03/16 00:59:56;;;;;;;4.27;2.23;;;;;;;;;;5071667;28;20445;-55
2023/03/16 01:02:23;;;;;;;4.20;2.17;;;;;;;;;;5071820;28;20452;-55
2023/03/16 01:04:49;;;;;;;3.70;2.40;;;;;;;;;;5071566;28;20453;-55
2023/03/16 01:07:16;;;;;;;2.50;2.00;;;;;;;;;;5071731;28;20483;-55
2023/03/16 01:09:43;;;;;;;3.63;2.80;;;;;;;;;;5071287;28;20936;-55
2023/03/16 01:12:10;;;;;;;6.13;3.00;;;;;;;;;;5071674;28;20495;-55
2023/03/16 01:14:36;;;;;;;3.20;2.17;;;;;;;;;;5071475;28;20438;-55
2023/03/16 01:17:04;;;;;;;3.23;2.20;;;;;;;;;;5071563;28;20450;-55
2023/03/16 01:19:34;;;;;;;4.30;2.27;;;;;;;;;;5070665;28;20444;-55
2023/03/16 01:22:00;;;;;;;3.33;2.30;;;;;;;;;;5071383;28;20432;-55
2023/03/16 01:24:28;;;;;;;4.93;2.33;;;;;;;;;;5071372;28;20434;-55
2023/03/16 01:26:54;;;;;;;3.87;2.30;;;;;;;;;;5071423;28;20866;-55
2023/03/16 01:29:20;;;;;;;3.80;2.20;;;;;;;;;;5071223;28;20469;-55
2023/03/16 01:31:48;;;;;;;3.47;2.30;;;;;;;;;;5071009;28;20223;-55
2023/03/16 01:34:17;;;;;;;4.13;2.87;;;;;;;;;;5071062;28;20847;-55
2023/03/16 01:36:43;;;;;;;6.57;2.70;;;;;;;;;;5071001;28;20440;-55
2023/03/16 01:39:09;;;;;;;5.40;2.50;;;;;;;;;;5071441;28;20481;-55
2023/03/16 01:41:36;;;;;;;3.77;2.10;;;;;;;;;;5070983;28;20434;-55
2023/03/16 01:44:03;;;;;;;2.93;2.60;;;;;;;;;;5070949;28;20898;-55
2023/03/16 01:46:29;;;;;;;3.20;2.67;;;;;;;;;;5070957;28;20438;-55
2023/03/16 01:49:02;;;;;;;3.73;2.60;;;;;;;;;;5071013;28;20923;-55
2023/03/16 01:51:31;;;;;;;4.57;2.40;;;;;;;;;;5070902;28;20476;-55
2023/03/16 01:53:58;;;;;;;3.13;2.10;;;;;;;;;;5070773;28;20447;-55
2023/03/16 01:56:25;;;;;;;5.07;2.43;;;;;;;;;;5071111;28;20438;-54
2023/03/16 01:58:57;;;;;;;3.30;2.20;;;;;;;;;;5070907;28;20434;-55
2023/03/16 02:01:24;;;;;;;4.50;2.90;;;;;;;;;;5070948;28;20448;-55
2023/03/16 02:03:54;;;;;;;3.37;2.27;;;;;;;;;;5070723;28;20442;-55
2023/03/16 02:06:22;;;;;;;3.23;2.47;;;;;;;;;;5070913;28;20433;-55
2023/03/16 02:08:49;;;;;;;4.40;2.20;;;;;;;;;;5070626;28;20445;-55
2023/03/16 02:11:21;;;;;;;3.80;2.10;;;;;;;;;;5070674;28;20481;-54
2023/03/16 02:13:48;;;;;;;4.33;2.20;;;;;;;;;;5070597;28;20475;-54
2023/03/16 02:16:18;;;;;;;2.57;2.33;;;;;;;;;;5070725;28;20430;-55
2023/03/16 02:18:44;;;;;;;3.47;2.30;;;;;;;;;;5070488;28;20478;-54
2023/03/16 02:24:13;;;;;;;6.50;2.30;;;;;;;;;;5070730;28;20443;-55
2023/03/16 02:26:43;;;;;;;2.87;2.00;;;;;;;;;;5071047;28;20514;-54
2023/03/16 02:29:24;;;;;;;5.80;2.43;;;;;;;;;;5070675;28;20446;-54
2023/03/16 02:31:52;;;;;;;4.17;2.17;;;;;;;;;;5073816;28;20499;-55
2023/03/16 02:34:18;;;;;;;3.60;2.20;;;;;;;;;;5074416;28;20484;-54
2023/03/16 02:36:46;;;;;;;3.93;2.50;;;;;;;;;;5074491;28;20446;-54
2023/03/16 02:39:12;;;;;;;3.87;2.27;;;;;;;;;;5074397;28;20473;-55
2023/03/16 02:41:38;;;;;;;2.97;2.33;;;;;;;;;;5074694;28;20472;-54
2023/03/16 02:44:09;;;;;;;3.63;2.20;;;;;;;;;;5074072;28;20832;-54
2023/03/16 02:46:36;;;;;;;4.77;2.47;;;;;;;;;;5074365;28;20449;-54
2023/03/16 02:49:07;;;;;;;3.43;2.23;;;;;;;;;;5074099;28;20430;-55
2023/03/16 02:51:33;;;;;;;4.03;2.60;;;;;;;;;;5074238;28;20483;-54
2023/03/16 02:53:59;;;;;;;4.33;2.13;;;;;;;;;;5074179;28;20510;-54
2023/03/16 02:56:25;;;;;;;3.00;2.37;;;;;;;;;;5074318;28;20219;-55
2023/03/16 02:58:51;;;;;;;3.73;2.40;;;;;;;;;;5074051;28;20461;-54
2023/03/16 03:01:17;;;;;;;4.33;2.40;;;;;;;;;;5074000;28;20951;-55
2023/03/16 03:03:43;;;;;;;3.47;2.40;;;;;;;;;;5074029;28;20196;-54
2023/03/16 03:06:10;;;;;;;2.43;2.23;;;;;;;;;;5074011;28;20692;-55
2023/03/16 03:08:36;;;;;;;4.53;2.33;;;;;;;;;;5073912;28;20210;-56
2023/03/16 03:11:02;;;;;;;4.80;2.30;;;;;;;;;;5073867;28;20474;-55
2023/03/16 03:13:28;;;;;;;6.27;2.57;;;;;;;;;;5073631;28;20203;-56
2023/03/16 03:15:54;;;;;;;3.03;2.40;;;;;;;;;;5073873;28;20507;-55
2023/03/16 03:18:20;;;;;;;3.20;2.47;;;;;;;;;;5073595;28;20206;-56
2023/03/16 03:20:46;;;;;;;4.90;2.60;;;;;;;;;;5073732;28;20223;-55
2023/03/16 03:23:14;;;;;;;5.03;2.53;;;;;;;;;;5073768;28;20200;-53
2023/03/16 03:25:40;;;;;;;4.67;2.57;;;;;;;;;;5073579;28;20704;-53
2023/03/16 03:28:07;;;;;;;4.57;2.37;;;;;;;;;;5073613;28;20458;-53
2023/03/16 03:30:33;;;;;;;5.23;2.33;;;;;;;;;;5073268;28;20254;-53
2023/03/16 03:33:00;;;;;;;4.13;2.30;;;;;;;;;;5073419;28;20491;-53
2023/03/16 03:35:26;;;;;;;3.13;2.03;;;;;;;;;;5073352;28;20534;-53
2023/03/16 03:37:52;;;;;;;5.63;2.10;;;;;;;;;;5073494;28;20932;-53
2023/03/16 03:40:20;;;;;;;4.40;2.50;;;;;;;;;;5073160;28;20441;-53
2023/03/16 03:42:46;;;;;;;4.60;2.57;;;;;;;;;;5072489;28;20947;-55
2023/03/16 03:45:13;;;;;;;4.73;2.50;;;;;;;;;;5072954;28;20900;-55
2023/03/16 03:47:39;;;;;;;3.60;2.40;;;;;;;;;;5073442;28;20516;-53
2023/03/16 03:50:06;;;;;;;8.03;2.60;;;;;;;;;;5073210;28;20812;-53
2023/03/16 03:52:32;;;;;;;3.70;2.50;;;;;;;;;;5073366;28;20609;-53
2023/03/16 03:54:58;;;;;;;3.07;2.20;;;;;;;;;;5073031;28;20481;-53
2023/03/16 03:57:25;;;;;;;5.50;2.63;;;;;;;;;;5073102;28;20453;-53
2023/03/16 03:59:51;;;;;;;7.70;2.50;;;;;;;;;;5072890;28;20652;-53
2023/03/16 04:02:17;;;;;;;5.53;2.87;;;;;;;;;;5072972;28;20438;-53
2023/03/16 04:04:43;;;;;;;4.17;2.40;;;;;;;;;;5072836;28;20802;-53
2023/03/16 04:07:10;;;;;;;3.73;2.20;;;;;;;;;;5072953;28;20196;-53
2023/03/16 04:09:36;;;;;;;3.33;2.20;;;;;;;;;;5072923;28;20442;-53
2023/03/16 04:12:03;;;;;;;4.30;2.30;;;;;;;;;;5072704;28;20473;-53
2023/03/16 04:14:31;;;;;;;3.00;2.00;;;;;;;;;;5072454;28;20442;-53
2023/03/16 04:16:57;;;;;;;3.83;2.67;;;;;;;;;;5072773;28;20457;-53
2023/03/16 04:19:23;;;;;;;4.13;2.23;;;;;;;;;;5072758;28;20437;-55
2023/03/16 04:21:49;;;;;;;4.07;2.30;;;;;;;;;;5072605;28;20442;-55
2023/03/16 04:24:15;;;;;;;4.50;2.40;;;;;;;;;;5072388;28;20853;-55
2023/03/16 04:26:46;;;;;;;5.03;2.40;;;;;;;;;;5072561;28;20488;-55
2023/03/16 04:29:13;;;;;;;2.63;2.10;;;;;;;;;;5072412;28;20442;-55
2023/03/16 04:31:41;;;;;;;3.03;2.20;;;;;;;;;;5072349;28;20885;-55
2023/03/16 04:34:07;;;;;;;5.47;2.33;;;;;;;;;;5072468;28;20525;-55
2023/03/16 04:36:33;;;;;;;3.50;2.13;;;;;;;;;;5072119;28;20560;-55
2023/03/16 04:38:59;;;;;;;3.17;2.50;;;;;;;;;;5072191;28;21011;-53
2023/03/16 04:41:25;;;;;;;7.17;2.43;;;;;;;;;;5072129;28;20237;-55
2023/03/16 04:43:51;;;;;;;3.53;2.50;;;;;;;;;;5071847;28;21052;-55
2023/03/16 04:46:17;;;;;;;4.60;2.57;;;;;;;;;;5072007;28;20449;-56
2023/03/16 04:48:45;;;;;;;6.13;2.10;;;;;;;;;;5072024;28;20199;-56
2023/03/16 04:51:11;;;;;;;3.90;2.20;;;;;;;;;;5071907;28;20485;-56
2023/03/16 04:53:37;;;;;;;3.10;2.20;;;;;;;;;;5071119;28;20444;-56
2023/03/16 04:56:03;;;;;;;4.50;2.30;;;;;;;;;;5071907;28;20658;-55
2023/03/16 04:58:29;;;;;;;6.43;2.30;;;;;;;;;;5071608;28;20199;-55
2023/03/16 05:00:55;;;;;;;4.23;2.30;;;;;;;;;;5072000;28;20433;-56
2023/03/16 05:03:21;;;;;;;3.10;2.20;;;;;;;;;;5071714;28;20440;-56
2023/03/16 05:05:49;;;;;;;3.20;2.10;;;;;;;;;;5071576;28;20865;-54
2023/03/16 05:08:15;;;;;;;3.93;2.20;;;;;;;;;;5071531;28;20466;-53
2023/03/16 05:10:41;;;;;;;4.97;2.57;;;;;;;;;;5071849;28;20866;-56
2023/03/16 05:13:07;;;;;;;4.97;2.60;;;;;;;;;;5071741;28;20547;-56
2023/03/16 05:15:33;;;;;;;5.10;2.57;;;;;;;;;;5071270;28;20492;-56
2023/03/16 05:18:00;;;;;;;2.93;2.23;;;;;;;;;;5071379;28;20614;-56
2023/03/16 05:20:26;;;;;;;2.73;2.17;;;;;;;;;;5071305;28;20552;-56
2023/03/16 05:22:54;;;;;;;4.87;2.57;;;;;;;;;;5071553;28;20436;-56
2023/03/16 05:25:20;;;;;;;3.80;2.53;;;;;;;;;;5071238;28;20530;-56
2023/03/16 05:27:47;;;;;;;3.13;2.40;;;;;;;;;;5071335;28;20931;-57
2023/03/16 05:30:17;;;;;;;4.90;2.40;;;;;;;;;;5070904;28;20975;-56
2023/03/16 05:32:44;;;;;;;3.27;2.50;;;;;;;;;;5071166;28;20488;-56
2023/03/16 05:35:12;;;;;;;6.27;2.63;;;;;;;;;;5071256;28;20521;-56
2023/03/16 05:37:38;;;;;;;5.33;2.73;;;;;;;;;;5071279;28;20434;-56
2023/03/16 05:40:13;;;;;;;3.07;2.20;;;;;;;;;;5071145;28;20465;-56
2023/03/16 05:42:39;;;;;;;5.97;2.77;;;;;;;;;;5071253;28;20546;-56
2023/03/16 05:45:05;;;;;;;4.67;2.40;;;;;;;;;;5070860;28;20569;-56
2023/03/16 05:47:31;;;;;;;3.20;2.30;;;;;;;;;;5070963;28;20299;-56
2023/03/16 05:49:57;;;;;;;3.30;2.30;;;;;;;;;;5070848;28;20469;-56
2023/03/16 05:52:24;;;;;;;4.73;2.30;;;;;;;;;;5071234;28;20191;-56
2023/03/16 05:54:50;;;;;;;3.20;2.20;;;;;;;;;;5070977;28;20430;-56
2023/03/16 05:57:17;;;;;;;5.27;2.30;;;;;;;;;;5071040;28;20456;-56
2023/03/16 05:59:43;;;;;;;4.43;2.37;;;;;;;;;;5070924;28;20448;-56
2023/03/16 06:02:09;;;;;;;4.67;2.40;;;;;;;;;;5071106;28;20483;-56
2023/03/16 06:04:35;;;;;;;4.67;2.30;;;;;;;;;;5070791;28;20559;-56
2023/03/16 06:07:01;;;;;;;3.40;2.20;;;;;;;;;;5070788;28;20507;-56
2023/03/16 06:09:27;;;;;;;4.30;2.30;;;;;;;;;;5070749;28;20438;-56
2023/03/16 06:11:53;;;;;;;5.03;2.30;;;;;;;;;;5070997;28;21036;-56
2023/03/16 06:14:22;;;;;;;4.20;2.53;;;;;;;;;;5070756;28;20192;-56
2023/03/16 06:16:48;;;;;;;3.37;2.30;;;;;;;;;;5070627;28;20203;-56
2023/03/16 06:19:14;;;;;;;2.50;2.30;;;;;;;;;;5070567;28;20522;-56
2023/03/16 06:21:40;;;;;;;4.63;2.23;;;;;;;;;;5070684;28;20502;-58
2023/03/16 06:24:07;;;;;;;3.40;2.00;;;;;;;;;;5070811;28;20426;-54
2023/03/16 06:26:33;;;;;;;4.50;2.73;;;;;;;;;;5070541;28;20963;-54
2023/03/16 06:28:59;;;;;;;2.90;2.43;;;;;;;;;;5070531;28;20438;-54
2023/03/16 06:31:27;;;;;;;4.13;2.53;;;;;;;;;;5070495;28;20527;-55
2023/03/16 06:33:53;;;;;;;5.67;2.40;;;;;;;;;;5070643;28;20192;-55
2023/03/16 06:36:19;;;;;;;5.07;2.30;;;;;;;;;;5070260;28;21000;-55
2023/03/16 06:38:45;;;;;;;3.53;2.20;;;;;;;;;;5070581;28;20487;-56
2023/03/16 06:41:11;;;;;;;4.10;3.20;;;;;;;;;;5070451;28;20250;-55
2023/03/16 06:43:37;;;;;;;4.73;2.60;;;;;;;;;;5070255;28;20701;-55
2023/03/16 06:46:03;;;;;;;4.47;2.50;;;;;;;;;;5070460;28;20928;-56
2023/03/16 06:48:30;;;;;;;3.07;2.27;;;;;;;;;;5070316;28;20450;-56
2023/03/16 06:50:56;;;;;;;7.47;3.37;;;;;;;;;;5070127;28;20506;-54
2023/03/16 06:53:22;;;;;;;3.73;2.57;;;;;;;;;;5070434;28;20524;-55
2023/03/16 06:55:48;;;;;;;4.00;2.73;;;;;;;;;;5070373;28;20567;-56
2023/03/16 06:58:14;;;;;;;5.20;2.57;;;;;;;;;;5052204;28;20456;-55
2023/03/16 07:00:41;;;;;;;5.73;2.87;;;;;;;;;;5070291;28;20199;-54
2023/03/16 07:03:07;;;;;;;3.63;2.43;;;;;;;;;;5070485;28;20593;-54
2023/03/16 07:05:35;;;;;;;5.17;2.70;;;;;;;;;;5070100;28;20438;-55
2023/03/16 07:08:01;;;;;;;5.20;2.93;;;;;;;;;;5070207;28;20460;-56
2023/03/16 07:10:27;;;;;;;3.60;2.50;;;;;;;;;;5070131;28;20888;-56
2023/03/16 07:12:54;;;;;;;5.03;3.03;;;;;;;;;;5070427;28;20434;-57
2023/03/16 07:15:20;;;;;;;3.10;2.60;;;;;;;;;;5070000;28;20802;-57
2023/03/16 07:17:46;;;;;;;8.60;3.03;;;;;;;;;;5073000;28;20476;-57
2023/03/16 07:20:13;;;;;;;4.20;2.57;;;;;;;;;;5073640;28;20442;-56
2023/03/16 07:22:40;;;;;;;4.70;3.10;;;;;;;;;;5073891;28;20449;-56
2023/03/16 07:25:07;;;;;;;3.53;2.60;;;;;;;;;;5073719;28;20454;-56
2023/03/16 07:27:33;;;;;;;6.67;2.90;;;;;;;;;;5073457;28;20436;-57
2023/03/16 07:29:59;;;;;;;4.47;3.23;;;;;;;;;;5073367;28;20472;-55
2023/03/16 07:32:25;;;;;;;4.40;2.80;;;;;;;;;;5073447;28;20532;-56
2023/03/16 07:34:52;;;;;;;4.70;2.90;;;;;;;;;;5073553;28;20442;-56
2023/03/16 07:37:18;;;;;;;3.37;2.53;;;;;;;;;;5073304;28;20430;-56
2023/03/16 07:39:45;;;;;;;4.20;2.93;;;;;;;;;;5073339;28;20849;-56
2023/03/16 07:42:13;;;;;;;3.50;2.70;;;;;;;;;;5073383;28;20477;-54
2023/03/16 07:44:39;;;;;;;4.27;3.37;;;;;;;;;;5073224;28;20497;-55
2023/03/16 07:47:05;;;;;;;7.17;3.27;;;;;;;;;;5073223;28;20492;-56
2023/03/16 07:49:32;;;;;;;5.13;3.10;;;;;;;;;;5073100;28;20308;-57
2023/03/16 07:51:58;;;;;;;5.17;3.07;;;;;;;;;;5072989;28;20484;-57
2023/03/16 07:54:24;;;;;;;4.37;2.97;;;;;;;;;;5073227;28;20505;-55
2023/03/16 07:56:51;;;;;;;5.70;2.93;;;;;;;;;;5073013;28;21006;-56
2023/03/16 07:59:19;;;;;;;5.03;2.87;;;;;;;;;;5072930;28;20500;-54
2023/03/16 08:01:45;;;;;;;5.00;3.00;;;;;;;;;;5072913;28;20638;-55
2023/03/16 08:04:11;;;;;;;6.27;2.90;;;;;;;;;;5072953;28;20436;-56
2023/03/16 08:06:37;;;;;;;7.27;2.87;;;;;;;;;;5072935;28;20440;-56
2023/03/16 08:09:04;;;;;;;5.17;2.93;;;;;;;;;;5072839;28;20437;-55
2023/03/16 08:11:30;;;;;;;3.83;2.73;;;;;;;;;;5072608;28;20484;-57
2023/03/16 08:13:58;;;;;;;4.37;2.57;;;;;;;;;;5072934;28;20578;-56
2023/03/16 08:16:25;;;;;;;5.43;2.50;;;;;;;;;;5072787;28;20962;-56
2023/03/16 08:18:51;;;;;;;4.53;2.70;;;;;;;;;;5072849;28;20431;-55
2023/03/16 08:21:17;;;;;;;4.87;2.53;;;;;;;;;;5072694;28;20480;-55
2023/03/16 08:23:48;;;;;;;4.77;2.53;;;;;;;;;;5072614;28;20854;-56
2023/03/16 08:26:14;;;;;;;2.93;2.20;;;;;;;;;;5072627;28;20529;-56
2023/03/16 08:28:40;;;;;;;5.10;2.77;;;;;;;;;;5072505;28;20442;-56
2023/03/16 08:31:07;;;;;;;3.60;2.17;;;;;;;;;;5072584;28;20462;-56
2023/03/16 08:33:34;;;;;;;3.70;2.33;;;;;;;;;;5072265;28;20203;-56
2023/03/16 08:36:01;;;;;;;3.83;2.20;;;;;;;;;;5072104;28;20844;-56
2023/03/16 08:38:27;;;;;;;5.13;2.20;;;;;;;;;;5072153;28;20465;-56
2023/03/16 08:40:53;;;;;;;3.60;2.27;;;;;;;;;;5072388;28;20457;-56
2023/03/16 08:43:19;;;;;;;3.80;2.23;;;;;;;;;;5071999;28;20764;-56
2023/03/16 08:45:45;;;;;;;5.10;2.07;;;;;;;;;;5071908;28;20236;-56
2023/03/16 08:48:13;;;;;;;5.50;2.20;;;;;;;;;;5072390;28;20430;-56
2023/03/16 08:50:40;;;;;;;4.30;2.57;;;;;;;;;;5071985;28;20535;-55
2023/03/16 08:53:06;;;;;;;3.40;1.90;;;;;;;;;;5072052;28;20438;-55
2023/03/16 08:55:32;;;;;;;3.80;1.83;;;;;;;;;;5071781;28;20477;-56
2023/03/16 08:57:58;;;;;;;3.87;2.13;;;;;;;;;;5071848;28;20430;-55
2023/03/16 09:00:25;;;;;;;3.50;1.97;;;;;;;;;;5054016;28;20468;-57
2023/03/16 09:02:51;;;;;;;3.23;1.83;;;;;;;;;;5071877;28;20462;-55
2023/03/16 09:05:18;;;;;;;4.57;2.00;;;;;;;;;;5071403;28;20511;-54
2023/03/16 09:07:45;;;;;;;3.30;1.90;;;;;;;;;;5071404;28;20541;-55
2023/03/16 09:10:14;;;;;;;3.87;1.77;;;;;;;;;;5071525;28;20437;-55
2023/03/16 09:12:41;;;;;;;4.63;1.90;;;;;;;;;;5071510;28;20441;-56
2023/03/16 09:15:09;;;;;;;3.50;1.90;;;;;;;;;;5071698;28;20442;-56
2023/03/16 09:17:35;;;;;;;3.80;1.87;;;;;;;;;;5071316;28;20437;-56
2023/03/16 09:20:01;;;;;;;3.77;1.77;;;;;;;;;;5071531;28;20685;-56
2023/03/16 09:22:28;;;;;;;3.07;1.83;;;;;;;;;;5071339;28;20433;-56
2023/03/16 09:24:55;;;;;;;1.87;1.57;;;;;;;;;;5071478;28;20932;-56
2023/03/16 09:27:21;;;;;;;3.97;1.93;;;;;;;;;;5071326;28;20986;-56
2023/03/16 09:29:47;;;;;;;2.63;1.83;;;;;;;;;;5071196;28;20446;-56
2023/03/16 09:32:14;;;;;;;7.53;2.00;;;;;;;;;;5071057;28;20227;-55
2023/03/16 09:34:40;;;;;;;4.13;1.97;;;;;;;;;;5071287;28;20426;-56
2023/03/16 09:37:06;;;;;;;2.50;1.70;;;;;;;;;;5071311;28;20437;-56
2023/03/16 09:39:33;;;;;;;2.70;1.73;;;;;;;;;;5070586;28;20432;-56
2023/03/16 09:42:03;;;;;;;2.93;1.80;;;;;;;;;;5071016;28;21067;-56
2023/03/16 09:44:33;;;;;;;4.70;1.83;;;;;;;;;;5070705;28;21070;-56
2023/03/16 09:47:01;;;;;;;3.67;2.07;;;;;;;;;;5071041;28;20649;-56
2023/03/16 09:49:30;;;;;;;3.97;2.20;;;;;;;;;;5071020;28;20213;-56
2023/03/16 09:51:59;;;;;;;3.90;1.83;;;;;;;;;;5071005;28;20227;-56
2023/03/16 09:54:29;;;;;;;2.83;1.80;;;;;;;;;;5070937;28;20430;-57
2023/03/16 09:56:57;;;;;;;2.37;1.73;;;;;;;;;;5071345;28;20191;-55
2023/03/16 09:59:24;;;;;;;3.27;2.10;;;;;;;;;;5071157;28;20203;-55
2023/03/16 10:01:57;;;;;;;2.33;1.57;;;;;;;;;;5070998;28;20653;-55
2023/03/16 10:04:34;;;;;;;3.30;2.00;;;;;;;;;;5071244;28;20191;-57
2023/03/16 10:07:04;;;;;;;3.07;1.90;;;;;;;;;;5071054;28;20199;-56
2023/03/16 10:09:33;;;;;;;1.93;1.70;;;;;;;;;;5070873;28;20224;-56
2023/03/16 10:12:01;;;;;;;3.67;1.90;;;;;;;;;;5070928;28;20223;-56
2023/03/16 10:14:30;;;;;;;2.83;1.77;;;;;;;;;;5070854;28;20212;-56
2023/03/16 10:17:00;;;;;;;2.43;1.67;;;;;;;;;;5071025;28;20195;-56
2023/03/16 10:19:31;;;;;;;2.43;1.67;;;;;;;;;;5071051;28;20208;-57
2023/03/16 10:22:00;;;;;;;2.30;1.80;;;;;;;;;;5070955;28;20203;-55
2023/03/16 10:24:37;;;;;;;2.93;1.73;;;;;;;;;;5070870;28;20572;-55
2023/03/16 10:27:06;;;;;;;4.20;1.97;;;;;;;;;;5070915;28;20191;-56
2023/03/16 10:29:35;;;;;;;1.93;1.73;;;;;;;;;;5070607;28;20645;-56
2023/03/16 10:32:07;;;;;;;2.07;1.50;;;;;;;;;;5070795;28;20219;-56
2023/03/16 10:34:34;;;;;;;3.70;1.60;;;;;;;;;;5070694;28;20199;-56
2023/03/16 10:37:02;;;;;;;3.10;1.60;;;;;;;;;;5070729;28;20203;-56
2023/03/16 10:39:35;;;;;;;3.57;1.90;;;;;;;;;;5070535;28;20199;-56
2023/03/16 10:42:01;;;;;;;3.87;1.80;;;;;;;;;;5070331;28;20211;-55
2023/03/16 10:44:28;;;;;;;3.57;1.80;;;;;;;;;;5070291;28;20239;-55
2023/03/16 10:46:59;;;;;;;2.63;1.70;;;;;;;;;;5070475;28;20203;-55
2023/03/16 10:49:26;;;;;;;2.20;1.70;;;;;;;;;;5070457;28;20235;-55
2023/03/16 10:51:53;;;;;;;2.40;1.63;;;;;;;;;;5072077;28;20322;-55
2023/03/16 10:54:23;;;;;;;5.07;1.83;;;;;;;;;;5074069;28;20278;-55
2023/03/16 10:56:49;;;;;;;3.63;1.70;;;;;;;;;;5073996;28;20684;-55
2023/03/16 10:59:26;;;;;;;1.90;1.70;;;;;;;;;;5073925;28;20204;-57
2023/03/16 11:01:54;;;;;;;2.63;1.43;;;;;;;;;;5074125;28;20564;-55
2023/03/16 11:04:20;;;;;;;3.33;1.67;;;;;;;;;;5073759;28;20265;-56
2023/03/16 11:06:51;;;;;;;2.90;1.60;;;;;;;;;;5074100;28;20717;-56
2023/03/16 11:09:22;;;;;;;1.90;1.30;;;;;;;;;;5073851;28;20191;-55
2023/03/16 11:11:49;;;;;;;2.60;1.63;;;;;;;;;;5073822;28;20706;-56
2023/03/16 11:14:15;;;;;;;2.80;1.53;;;;;;;;;;5073934;28;20200;-55
2023/03/16 11:16:44;;;;;;;3.20;2.10;;;;;;;;;;5073597;28;20290;-56
2023/03/16 11:19:17;;;;;;;2.30;1.70;;;;;;;;;;5073963;28;20195;-56
2023/03/16 11:21:50;;;;;;;4.90;1.90;;;;;;;;;;5073737;28;20210;-56
2023/03/16 11:24:18;;;;;;;5.00;1.40;;;;;;;;;;5073395;28;20792;-57
2023/03/16 11:26:46;;;;;;;1.53;1.40;;;;;;;;;;5073425;28;20200;-56
2023/03/16 11:29:16;;;;;;;2.77;1.60;;;;;;;;;;5073251;28;20200;-56
2023/03/16 11:31:48;;;;;;;3.53;2.03;;;;;;;;;;5073134;28;20314;-56
2023/03/16 11:34:17;;;;;;;1.77;1.40;;;;;;;;;;5073232;28;20226;-57
2023/03/16 11:36:47;;;;;;;3.30;1.60;;;;;;;;;;5073369;28;20269;-57
2023/03/16 11:39:21;;;;;;;1.57;1.30;;;;;;;;;;5073215;28;20693;-56
2023/03/16 11:41:53;;;;;;;4.07;1.87;;;;;;;;;;5073251;28;20305;-56
2023/03/16 11:44:22;;;;;;;2.97;1.63;;;;;;;;;;5073015;28;20318;-56
2023/03/16 11:46:51;;;;;;;2.10;1.57;;;;;;;;;;5073336;28;20207;-56
2023/03/16 11:49:31;;;;;;;2.40;1.40;;;;;;;;;;5073082;28;20195;-56
2023/03/16 11:52:02;;;;;;;2.70;1.60;;;;;;;;;;5073118;28;20272;-56
2023/03/16 11:54:36;;;;;;;1.90;1.30;;;;;;;;;;5072906;28;20200;-56
2023/03/16 11:57:05;;;;;;;4.30;1.57;;;;;;;;;;5073014;28;20194;-57
2023/03/16 11:59:36;;;;;;;1.60;1.20;;;;;;;;;;5072663;28;20196;-56
2023/03/16 12:02:18;;;;;;;3.13;1.40;;;;;;;;;;5072460;28;20188;-57
2023/03/16 12:04:49;;;;;;;1.70;1.30;;;;;;;;;;5072585;28;20661;-56
2023/03/16 12:07:21;;;;;;;1.30;1.20;;;;;;;;;;5072782;28;20693;-57
2023/03/16 12:10:01;;;;;;;1.60;1.30;;;;;;;;;;5072752;28;20239;-57
2023/03/16 12:12:33;;;;;;;1.30;1.20;;;;;;;;;;5072510;28;20585;-58
2023/03/16 12:15:10;;;;;;;2.13;1.50;;;;;;;;;;5072486;28;20658;-58
2023/03/16 12:17:37;;;;;;;3.73;1.50;;;;;;;;;;5072424;28;20689;-58
2023/03/16 12:20:09;;;;;;;3.07;1.50;;;;;;;;;;5072331;28;20192;-57
2023/03/16 12:22:37;;;;;;;2.00;1.33;;;;;;;;;;5072367;28;20194;-58
2023/03/16 12:25:06;;;;;;;2.17;1.30;;;;;;;;;;5072374;28;20199;-58
2023/03/16 12:27:35;;;;;;;2.67;1.53;;;;;;;;;;5072062;28;20195;-57
2023/03/16 12:30:08;;;;;;;1.30;1.20;;;;;;;;;;5071971;28;20200;-58
2023/03/16 12:32:39;;;;;;;2.30;1.50;;;;;;;;;;5072051;28;20670;-58
2023/03/16 12:35:16;;;;;;;1.40;1.30;;;;;;;;;;5072345;28;20265;-58
2023/03/16 12:37:44;;;;;;;2.33;1.43;;;;;;;;;;5072063;28;20226;-58
2023/03/16 12:40:18;;;;;;;4.17;1.60;;;;;;;;;;5072045;28;20291;-57
2023/03/16 12:42:50;;;;;;;1.60;1.50;;;;;;;;;;5071681;28;20620;-56
2023/03/16 12:45:18;;;;;;;2.77;1.37;;;;;;;;;;5071710;28;20247;-57
2023/03/16 12:47:52;;;;;;;1.93;1.50;;;;;;;;;;5071568;28;20565;-58
2023/03/16 12:50:19;;;;;;;2.77;1.53;;;;;;;;;;5071713;28;20226;-58
2023/03/16 12:52:47;;;;;;;1.87;1.50;;;;;;;;;;5071733;28;20269;-57
2023/03/16 12:55:14;;;;;;;1.80;1.40;;;;;;;;;;5071869;28;20191;-57
2023/03/16 12:57:40;;;;;;;2.33;1.60;;;;;;;;;;5071802;28;20203;-58
2023/03/16 13:00:08;;;;;;;2.30;1.40;;;;;;;;;;5072072;28;20196;-57
2023/03/16 13:02:35;;;;;;;3.57;2.20;;;;;;;;;;5071480;28;20188;-56
2023/03/16 13:05:07;;;;;;;1.90;1.70;;;;;;;;;;5071491;28;20202;-57
2023/03/16 13:07:35;;;;;;;1.93;1.40;;;;;;;;;;5071510;28;20196;-58
2023/03/16 13:10:03;;;;;;;1.90;1.43;;;;;;;;;;5071508;28;20196;-58
2023/03/16 13:12:31;;;;;;;2.30;1.50;;;;;;;;;;5071283;28;20269;-58
2023/03/16 13:14:58;;;;;;;1.57;1.37;;;;;;;;;;5070752;28;20206;-58
2023/03/16 13:17:25;;;;;;;3.67;1.50;;;;;;;;;;5071563;28;20200;-57
2023/03/16 13:19:59;;;;;;;2.53;1.60;;;;;;;;;;5071691;28;20200;-58
2023/03/16 13:22:26;;;;;;;1.63;1.33;;;;;;;;;;5071352;28;20196;-58
2023/03/16 13:24:56;;;;;;;2.10;1.70;;;;;;;;;;5071441;28;20199;-57
2023/03/16 13:27:25;;;;;;;2.87;1.70;;;;;;;;;;5071223;28;20223;-55
2023/03/16 13:29:53;;;;;;;2.30;1.57;;;;;;;;;;5071324;28;20227;-59
2023/03/16 13:32:21;;;;;;;2.37;1.53;;;;;;;;;;5070975;28;20650;-58
2023/03/16 13:34:48;;;;;;;2.53;1.67;;;;;;;;;;5071226;28;20348;-58
2023/03/16 13:37:16;;;;;;;4.87;1.60;;;;;;;;;;5071249;28;20199;-58
2023/03/16 13:39:52;;;;;;;1.43;1.33;;;;;;;;;;5070874;28;20207;-58
2023/03/16 13:42:21;;;;;;;1.30;1.20;;;;;;;;;;5070902;28;20222;-59
2023/03/16 13:44:47;;;;;;;3.17;1.57;;;;;;;;;;5063806;28;20231;-58
2023/03/16 13:47:14;;;;;;;1.40;1.30;;;;;;;;;;5070335;28;20201;-58
2023/03/16 13:49:43;;;;;;;1.73;1.50;;;;;;;;;;5069620;28;20212;-57
2023/03/16 13:52:12;;;;;;;1.80;1.70;;;;;;;;;;5070828;28;20227;-57
2023/03/16 13:54:38;;;;;;;1.73;1.60;;;;;;;;;;5070616;28;20572;-57
2023/03/16 13:57:06;;;;;;;1.30;1.20;;;;;;;;;;5070552;28;20294;-57
2023/03/16 13:59:33;;;;;;;2.67;1.90;;;;;;;;;;5070102;28;20574;-58
2023/03/16 14:02:00;;;;;;;3.23;1.43;;;;;;;;;;5068651;28;20195;-55
2023/03/16 14:04:28;;;;;;;1.60;1.30;;;;;;;;;;5070606;28;20192;-59
2023/03/16 14:06:55;;;;;;;3.00;1.50;;;;;;;;;;5070846;28;20191;-57
2023/03/16 14:09:24;;;;;;;1.90;1.50;;;;;;;;;;5070388;28;20752;-57
2023/03/16 14:11:50;;;;;;;2.20;1.40;;;;;;;;;;5070457;28;20227;-57
2023/03/16 14:14:17;;;;;;;2.93;1.60;;;;;;;;;;5070533;28;20195;-57
2023/03/16 14:16:44;;;;;;;2.47;1.60;;;;;;;;;;5070525;28;20200;-57
2023/03/16 14:19:16;;;;;;;1.63;1.27;;;;;;;;;;5070906;28;20605;-57
2023/03/16 14:21:44;;;;;;;2.07;1.40;;;;;;;;;;5070814;28;20206;-57
2023/03/16 14:24:19;;;;;;;1.60;1.50;;;;;;;;;;5069103;28;20253;-57
2023/03/16 14:26:46;;;;;;;1.93;1.50;;;;;;;;;;5073837;28;20198;-57
2023/03/16 14:29:15;;;;;;;1.40;1.30;;;;;;;;;;5074655;28;20723;-57
2023/03/16 14:31:42;;;;;;;3.77;1.53;;;;;;;;;;5074509;28;20306;-56
2023/03/16 14:34:20;;;;;;;1.67;1.37;;;;;;;;;;5074867;28;20218;-56
2023/03/16 14:36:47;;;;;;;1.37;1.27;;;;;;;;;;5074413;28;20203;-56
2023/03/16 14:39:15;;;;;;;2.07;1.50;;;;;;;;;;5074553;28;20568;-57
2023/03/16 14:41:42;;;;;;;1.23;1.10;;;;;;;;;;5074250;28;20218;-57
2023/03/16 14:44:16;;;;;;;1.63;1.40;;;;;;;;;;5074335;28;20281;-56
2023/03/16 14:46:42;;;;;;;1.57;1.27;;;;;;;;;;5074202;28;20240;-57
2023/03/16 14:49:09;;;;;;;1.47;1.37;;;;;;;;;;5074427;28;20287;-55